Terminal Aerodrome Forecast
Issued by NWS

Home | Current Version | Previous Version | Text Only | Print | Product List | Glossary On
Versions: 1 2 3 4 5 6 7 8 9 10 11 12 13 14 15 16
000
FTUS42 TJSJ 111100
TAFJPS
TAF
TJPS 111123Z 1112/1212 VRB05KT P6SM FEW030
     FM111400 13010G20KT P6SM SCT030
     FM112300 08006KT P6SM FEW030
      AMD NOT SKED TIL 120300=

USA.gov is the U.S. government's official web portal to all federal, state and local government web resources and services.